< < Back
Terminal Aerodrome Forecast


Current Version              Previous Versions:   1  2  3  4  5  6  7  8  9  

Terminal Aerodrome Forecast

244
FTUS44 KMRX 241104 AAA
TAFTYS
TAF AMD
KTYS 241104Z 2411/2506 VRB03KT P6SM BKN060
     FM241600 23006KT P6SM SCT050 BKN250
     FM250100 22004KT P6SM FEW060 SCT150=

Latest METAR

004
SAUS80 KWBC 250800 CCA
MTRTYS
METAR KTYS 250753Z 00000KT 10SM SCT250 23/21 A3016 RMK AO2 SLP202
T02330206


USA.gov is the U.S. government's official web portal to all federal, state and local government web resources and services.